Time;durP1;ratioP1;P1;durP2;ratioP2;P2;SDS_P1;SDS_P2;PMS_P1;PMS_P2;Temp;Humidity;BMP_temperature;BMP_pressure;BME280_temperature;BME280_humidity;BME280_pressure;Samples;Min_cycle;Max_cycle;Signal;HPM_P1;HPM_P2
2022/03/12 00:02:04;;;;;;;0.85;0.40;;;22.00;53.10;;;;;;5033533;28;20021;-67
2022/03/12 00:04:30;;;;;;;0.77;0.35;;;22.00;53.20;;;;;;5033382;28;20029;-67
2022/03/12 00:06:55;;;;;;;0.13;0.13;;;22.00;53.20;;;;;;5033499;28;20029;-67
2022/03/12 00:09:22;;;;;;;2.05;0.55;;;22.00;53.20;;;;;;5032933;28;20049;-67
2022/03/12 00:11:55;;;;;;;0.73;0.32;;;22.00;53.20;;;;;;5032430;28;20032;-67
2022/03/12 00:14:24;;;;;;;1.08;0.17;;;22.00;53.30;;;;;;5032808;28;20021;-67
2022/03/12 00:16:50;;;;;;;0.60;0.30;;;22.00;53.30;;;;;;5033186;28;20022;-67
2022/03/12 00:19:16;;;;;;;3.83;0.40;;;22.00;53.30;;;;;;5033142;28;20025;-67
2022/03/12 00:21:42;;;;;;;0.77;0.22;;;22.00;53.30;;;;;;5048519;28;20123;-67
2022/03/12 00:24:08;;;;;;;2.25;0.50;;;22.00;53.30;;;;;;5050562;28;20539;-67
2022/03/12 00:26:38;;;;;;;1.40;0.47;;;22.00;53.30;;;;;;5051759;28;20029;-67
2022/03/12 00:29:04;;;;;;;0.52;0.32;;;22.00;53.30;;;;;;5053072;28;20020;-67
2022/03/12 00:31:30;;;;;;;0.68;0.10;;;22.00;53.30;;;;;;5051591;28;20017;-67
2022/03/12 00:33:56;;;;;;;2.03;0.50;;;22.00;53.30;;;;;;5051450;28;20044;-67
2022/03/12 00:36:22;;;;;;;0.90;0.45;;;22.00;53.40;;;;;;5052475;28;20494;-67
2022/03/12 00:38:48;;;;;;;1.63;0.25;;;22.00;53.40;;;;;;5052475;28;20029;-67
2022/03/12 00:41:13;;;;;;;0.88;0.40;;;22.00;53.40;;;;;;5052831;28;20013;-67
2022/03/12 00:43:39;;;;;;;0.90;0.38;;;22.00;53.40;;;;;;5034760;28;20032;-67
2022/03/12 00:46:05;;;;;;;0.22;0.20;;;22.00;53.50;;;;;;5052737;28;20139;-67
2022/03/12 00:48:32;;;;;;;1.00;0.45;;;22.00;53.50;;;;;;5052615;28;20502;-67
2022/03/12 00:50:57;;;;;;;1.60;0.35;;;22.00;53.50;;;;;;5052576;28;20047;-67
2022/03/12 00:53:23;;;;;;;1.05;0.40;;;22.00;53.50;;;;;;5052145;28;20064;-67
2022/03/12 00:55:49;;;;;;;3.33;1.00;;;22.00;53.50;;;;;;5052674;28;20017;-67
2022/03/12 00:58:14;;;;;;;3.70;0.30;;;22.00;53.60;;;;;;5052476;28;20079;-67
2022/03/12 01:00:40;;;;;;;0.32;0.30;;;22.00;53.50;;;;;;5034701;28;20071;-67
2022/03/12 01:03:06;;;;;;;0.45;0.30;;;22.00;53.60;;;;;;5052339;28;20025;-67
2022/03/12 01:05:52;;;;;;;1.13;0.40;;;22.00;53.60;;;;;;5052113;28;20403;-67
2022/03/12 01:08:18;;;;;;;1.35;0.50;;;22.00;54.60;;;;;;5052048;28;20025;-67
2022/03/12 01:10:44;;;;;;;0.70;0.47;;;21.90;53.60;;;;;;5052636;28;20109;-67
2022/03/12 01:13:10;;;;;;;0.60;0.40;;;21.90;53.60;;;;;;5034503;28;20101;-67
2022/03/12 01:15:36;;;;;;;0.68;0.30;;;22.00;53.70;;;;;;5052113;28;20017;-67
2022/03/12 01:18:02;;;;;;;0.65;0.40;;;21.90;53.70;;;;;;5018254;28;20032;-67
2022/03/12 01:20:29;;;;;;;0.70;0.30;;;21.90;53.60;;;;;;5052038;28;20022;-67
2022/03/12 01:22:55;;;;;;;1.00;0.35;;;21.90;53.70;;;;;;5009641;28;20053;-67
2022/03/12 01:25:20;;;;;;;0.65;0.40;;;21.90;53.60;;;;;;5031065;28;20514;-67
2022/03/12 01:27:46;;;;;;;1.27;0.30;;;21.90;53.70;;;;;;4997547;28;20037;-67
2022/03/12 01:30:12;;;;;;;0.45;0.30;;;21.90;53.70;;;;;;5031273;28;20164;-67
2022/03/12 01:32:38;;;;;;;0.57;0.25;;;21.90;53.70;;;;;;5031215;28;20044;-67
2022/03/12 01:35:04;;;;;;;0.40;0.40;;;22.00;53.70;;;;;;5031172;28;20014;-67
2022/03/12 01:37:30;;;;;;;0.80;0.80;;;21.90;53.70;;;;;;5031129;28;20037;-67
2022/03/12 01:39:55;;;;;;;0.38;0.20;;;21.90;53.80;;;;;;5031237;28;20026;-67
2022/03/12 01:42:21;;;;;;;1.40;0.30;;;21.90;53.80;;;;;;5031296;28;20034;-67
2022/03/12 01:44:47;;;;;;;0.60;0.30;;;21.90;53.80;;;;;;5031121;28;20025;-67
2022/03/12 01:47:19;;;;;;;5.15;0.60;;;21.90;53.80;;;;;;5032331;28;20484;-67
2022/03/12 01:49:47;;;;;;;0.50;0.30;;;21.90;53.80;;;;;;5034669;28;20108;-67
2022/03/12 01:52:12;;;;;;;0.30;0.20;;;21.90;53.80;;;;;;5034384;28;20060;-67
2022/03/12 01:54:40;;;;;;;3.72;0.40;;;21.90;53.80;;;;;;5033222;28;20045;-67
2022/03/12 01:57:06;;;;;;;3.60;0.60;;;21.90;53.80;;;;;;5034725;28;20026;-67
2022/03/12 01:59:33;;;;;;;0.95;0.55;;;21.90;53.90;;;;;;5034440;28;20023;-67
2022/03/12 02:01:58;;;;;;;1.45;0.50;;;21.90;53.80;;;;;;5033268;28;20034;-67
2022/03/12 02:04:25;;;;;;;1.23;0.30;;;21.90;53.90;;;;;;5033393;28;20025;-67
2022/03/12 02:06:52;;;;;;;0.40;0.30;;;21.90;53.90;;;;;;5034144;28;20025;-67
2022/03/12 02:09:18;;;;;;;1.52;0.50;;;21.90;53.90;;;;;;5034656;28;20009;-67
2022/03/12 02:11:50;;;;;;;1.50;0.35;;;21.90;54.00;;;;;;5033205;28;20018;-67
2022/03/12 02:14:20;;;;;;;1.15;0.50;;;21.90;53.90;;;;;;5034434;28;20488;-67
2022/03/12 02:16:52;;;;;;;0.95;0.32;;;21.90;54.00;;;;;;5034028;28;20021;-67
2022/03/12 02:19:18;;;;;;;1.27;0.40;;;21.90;54.00;;;;;;5034004;28;20021;-67
2022/03/12 02:21:54;;;;;;;0.85;0.40;;;21.90;54.00;;;;;;5033005;28;20052;-67
2022/03/12 02:24:21;;;;;;;0.47;0.30;;;22.00;54.10;;;;;;4988543;28;1344456;-67
2022/03/12 02:26:47;;;;;;;2.10;0.40;;;21.90;54.10;;;;;;5034969;28;20049;-67
2022/03/12 02:29:18;;;;;;;0.25;0.22;;;21.90;54.10;;;;;;5035398;28;20507;-67
2022/03/12 02:31:47;;;;;;;1.08;0.40;;;21.90;54.60;;;;;;5018029;28;20458;-67
2022/03/12 02:34:13;;;;;;;0.30;0.20;;;21.90;54.10;;;;;;5001342;28;20467;-67
2022/03/12 02:36:39;;;;;;;0.20;0.20;;;21.90;54.10;;;;;;5035122;28;20030;-67
2022/03/12 02:39:05;;;;;;;0.80;0.30;;;21.90;54.20;;;;;;5034945;28;20021;-67
2022/03/12 02:41:31;;;;;;;0.30;0.20;;;21.90;54.10;;;;;;5033915;28;20033;-67
2022/03/12 02:43:57;;;;;;;0.55;0.30;;;21.90;54.10;;;;;;5035132;28;20034;-67
2022/03/12 02:46:25;;;;;;;1.08;0.30;;;21.90;54.10;;;;;;5033838;28;20044;-67
2022/03/12 02:48:51;;;;;;;0.82;0.22;;;21.90;54.10;;;;;;5034755;28;20491;-67
2022/03/12 02:51:17;;;;;;;0.63;0.30;;;21.90;54.10;;;;;;5033670;28;20075;-67
2022/03/12 02:53:44;;;;;;;0.35;0.20;;;21.90;54.10;;;;;;5033648;28;20403;-67
2022/03/12 02:56:11;;;;;;;0.38;0.30;;;21.90;54.20;;;;;;5034840;28;20021;-67
2022/03/12 02:58:37;;;;;;;1.38;0.50;;;21.90;54.20;;;;;;5034569;28;20013;-67
2022/03/12 03:01:04;;;;;;;0.65;0.40;;;21.90;54.20;;;;;;5034710;28;20533;-67
2022/03/12 03:03:37;;;;;;;1.13;0.35;;;21.90;54.20;;;;;;5034312;28;20045;-67
2022/03/12 03:06:03;;;;;;;1.13;0.40;;;21.90;54.20;;;;;;5034587;28;20033;-67
2022/03/12 03:08:28;;;;;;;0.85;0.30;;;21.90;54.20;;;;;;5034720;28;20028;-67
2022/03/12 03:10:55;;;;;;;0.85;0.30;;;21.90;54.30;;;;;;5034309;28;20056;-67
2022/03/12 03:13:21;;;;;;;1.17;0.50;;;21.90;54.20;;;;;;5033377;28;20083;-67
2022/03/12 03:15:57;;;;;;;0.60;0.20;;;21.90;54.30;;;;;;5034293;28;20033;-67
2022/03/12 03:18:24;;;;;;;1.90;0.32;;;21.90;54.30;;;;;;5034167;28;20538;-67
2022/03/12 03:20:50;;;;;;;0.77;0.50;;;21.90;54.30;;;;;;5034113;28;20479;-66
2022/03/12 03:23:16;;;;;;;0.57;0.30;;;21.90;54.30;;;;;;5044736;28;20486;-66
2022/03/12 03:25:42;;;;;;;0.80;0.32;;;21.90;54.30;;;;;;5053778;28;20052;-67
2022/03/12 03:28:08;;;;;;;0.40;0.20;;;21.90;54.30;;;;;;5054149;28;20399;-67
2022/03/12 03:30:35;;;;;;;1.55;0.40;;;21.90;54.30;;;;;;5053026;28;20487;-66
2022/03/12 03:33:05;;;;;;;1.98;0.35;;;21.90;54.40;;;;;;5048719;28;20076;-67
2022/03/12 03:35:31;;;;;;;1.15;0.25;;;21.90;54.30;;;;;;5034128;28;20017;-67
2022/03/12 03:37:57;;;;;;;1.67;0.40;;;21.90;54.40;;;;;;5033970;28;20536;-67
2022/03/12 03:40:24;;;;;;;0.52;0.35;;;21.90;54.40;;;;;;5033963;28;20017;-67
2022/03/12 03:42:49;;;;;;;2.85;0.35;;;21.90;54.40;;;;;;5049304;28;20025;-67
2022/03/12 03:45:27;;;;;;;0.98;0.40;;;21.90;54.40;;;;;;5032798;28;20108;-67
2022/03/12 03:47:54;;;;;;;0.75;0.20;;;21.90;54.40;;;;;;5049024;28;20056;-67
2022/03/12 03:50:28;;;;;;;1.00;0.30;;;21.90;54.40;;;;;;5033827;28;20025;-67
2022/03/12 03:53:02;;;;;;;0.88;0.40;;;21.90;54.40;;;;;;5047910;28;20032;-67
2022/03/12 03:55:28;;;;;;;0.85;0.30;;;21.90;54.50;;;;;;5032476;28;20029;-67
2022/03/12 03:57:54;;;;;;;0.45;0.20;;;21.90;54.50;;;;;;5049047;28;20034;-67
2022/03/12 04:00:23;;;;;;;2.15;0.43;;;21.90;54.50;;;;;;5048899;28;20009;-67
2022/03/12 04:03:02;;;;;;;0.52;0.30;;;21.90;54.50;;;;;;5033132;28;20108;-66
2022/03/12 04:05:33;;;;;;;1.20;0.50;;;21.90;54.50;;;;;;5032447;28;20507;-67
2022/03/12 04:08:00;;;;;;;0.52;0.25;;;21.90;54.50;;;;;;5033415;28;20037;-67
2022/03/12 04:10:26;;;;;;;1.70;0.40;;;21.90;54.60;;;;;;5047960;28;20022;-67
2022/03/12 04:12:52;;;;;;;2.22;0.40;;;21.90;54.50;;;;;;5048316;28;20051;-67
2022/03/12 04:15:17;;;;;;;0.82;0.28;;;21.90;54.50;;;;;;5033136;28;20480;-67
2022/03/12 04:17:44;;;;;;;1.25;0.30;;;21.90;54.60;;;;;;5033126;28;20041;-67
2022/03/12 04:20:13;;;;;;;1.58;0.40;;;21.90;54.50;;;;;;5033156;28;20100;-67
2022/03/12 04:22:41;;;;;;;0.93;0.30;;;21.90;54.60;;;;;;5038616;28;20091;-67
2022/03/12 04:25:13;;;;;;;1.15;0.30;;;21.90;54.60;;;;;;5052941;28;20035;-67
2022/03/12 04:27:42;;;;;;;0.77;0.40;;;21.90;54.60;;;;;;5052880;28;20028;-67
2022/03/12 04:30:09;;;;;;;0.88;0.20;;;21.80;54.60;;;;;;5052661;28;20025;-67
2022/03/12 04:32:34;;;;;;;0.60;0.43;;;21.80;54.60;;;;;;5052991;28;20130;-67
2022/03/12 04:35:00;;;;;;;0.60;0.30;;;21.80;54.60;;;;;;5052800;28;20609;-67
2022/03/12 04:37:26;;;;;;;0.50;0.20;;;21.80;54.60;;;;;;5052958;28;20021;-67
2022/03/12 04:39:51;;;;;;;0.68;0.20;;;21.80;54.60;;;;;;5052829;28;20021;-67
2022/03/12 04:42:18;;;;;;;0.50;0.30;;;21.80;54.60;;;;;;5052708;28;20028;-67
2022/03/12 04:44:44;;;;;;;1.45;0.30;;;21.80;54.60;;;;;;5052449;28;20021;-67
2022/03/12 04:47:12;;;;;;;0.35;0.22;;;21.80;54.60;;;;;;5052670;28;20033;-67
2022/03/12 04:49:38;;;;;;;1.45;0.30;;;21.90;54.70;;;;;;5052796;28;20028;-67
2022/03/12 04:52:04;;;;;;;1.88;0.40;;;21.80;54.70;;;;;;5052378;28;20029;-66
2022/03/12 04:54:33;;;;;;;2.28;0.40;;;21.80;54.60;;;;;;5052578;28;20440;-66
2022/03/12 04:56:58;;;;;;;0.52;0.30;;;21.80;54.70;;;;;;5052332;28;20087;-66
2022/03/12 04:59:24;;;;;;;1.55;0.40;;;21.80;54.70;;;;;;5052329;28;20431;-66
2022/03/12 05:01:50;;;;;;;0.60;0.30;;;21.90;54.80;;;;;;5052501;28;20032;-66
2022/03/12 05:04:15;;;;;;;0.88;0.30;;;21.80;54.70;;;;;;5052313;28;20029;-67
2022/03/12 05:06:41;;;;;;;1.45;0.40;;;21.80;54.70;;;;;;5052275;28;20475;-67
2022/03/12 05:09:07;;;;;;;0.73;0.30;;;21.80;54.70;;;;;;5052305;28;20372;-67
2022/03/12 05:11:34;;;;;;;0.60;0.30;;;21.80;54.70;;;;;;5052286;28;20532;-67
2022/03/12 05:13:59;;;;;;;0.52;0.30;;;21.80;54.70;;;;;;5051978;28;20029;-67
2022/03/12 05:16:28;;;;;;;1.75;0.30;;;21.80;54.80;;;;;;5052293;28;20025;-67
2022/03/12 05:18:56;;;;;;;0.98;0.40;;;21.80;54.70;;;;;;5052006;28;20096;-67
2022/03/12 05:21:21;;;;;;;0.55;0.30;;;21.80;54.80;;;;;;5051418;28;20028;-67
2022/03/12 05:23:47;;;;;;;0.40;0.20;;;21.80;54.80;;;;;;5051973;28;20044;-67
2022/03/12 05:26:13;;;;;;;0.77;0.30;;;21.80;54.80;;;;;;5052041;28;20037;-67
2022/03/12 05:28:39;;;;;;;0.80;0.35;;;21.80;54.80;;;;;;5052275;28;20029;-67
2022/03/12 05:31:05;;;;;;;2.22;0.55;;;21.80;54.80;;;;;;5052089;28;20483;-67
2022/03/12 05:33:31;;;;;;;0.60;0.30;;;21.80;54.80;;;;;;5045158;28;20029;-67
2022/03/12 05:35:58;;;;;;;0.65;0.32;;;21.80;54.80;;;;;;5050846;28;20017;-67
2022/03/12 05:38:31;;;;;;;1.10;0.40;;;21.80;54.80;;;;;;5052181;28;20056;-67
2022/03/12 05:40:57;;;;;;;0.82;0.35;;;21.80;54.80;;;;;;5050729;28;20079;-67
2022/03/12 05:43:25;;;;;;;1.83;0.50;;;21.80;54.80;;;;;;5050719;28;20032;-67
2022/03/12 05:45:52;;;;;;;0.82;0.40;;;21.80;54.80;;;;;;5051938;28;20033;-67
2022/03/12 05:48:19;;;;;;;0.60;0.35;;;21.80;54.90;;;;;;5050741;28;20156;-67
2022/03/12 05:50:46;;;;;;;0.55;0.30;;;21.80;54.90;;;;;;5052039;28;20028;-67
2022/03/12 05:53:16;;;;;;;1.05;0.50;;;21.80;54.90;;;;;;5050713;28;20025;-67
2022/03/12 05:55:42;;;;;;;0.20;0.10;;;21.80;54.90;;;;;;5051842;28;20585;-67
2022/03/12 05:58:08;;;;;;;0.65;0.40;;;21.80;54.90;;;;;;5051705;28;20017;-67
2022/03/12 06:00:34;;;;;;;2.60;0.50;;;21.80;54.90;;;;;;5050811;28;20025;-67
2022/03/12 06:03:00;;;;;;;0.60;0.30;;;21.80;54.90;;;;;;5051510;28;20128;-67
2022/03/12 06:05:26;;;;;;;0.57;0.40;;;21.80;55.00;;;;;;5034228;28;20039;-67
2022/03/12 06:07:52;;;;;;;0.90;0.30;;;21.80;54.90;;;;;;5042517;28;20108;-66
2022/03/12 06:10:21;;;;;;;0.50;0.20;;;21.80;55.00;;;;;;5041989;28;20087;-67
2022/03/12 06:12:48;;;;;;;0.95;0.40;;;21.80;55.00;;;;;;5038995;28;20025;-67
2022/03/12 06:15:16;;;;;;;1.67;0.30;;;21.80;55.00;;;;;;5039266;28;20010;-66
2022/03/12 06:17:43;;;;;;;0.73;0.20;;;21.80;54.90;;;;;;5021437;28;20021;-67
2022/03/12 06:20:12;;;;;;;2.45;0.30;;;21.80;55.00;;;;;;5039657;28;20028;-66
2022/03/12 06:22:38;;;;;;;2.67;0.50;;;21.80;55.00;;;;;;5042438;28;20103;-67
2022/03/12 06:25:06;;;;;;;0.50;0.35;;;21.80;55.00;;;;;;5030217;28;20037;-67
2022/03/12 06:27:32;;;;;;;0.35;0.25;;;21.80;55.00;;;;;;5050794;28;20017;-67
2022/03/12 06:29:57;;;;;;;0.73;0.32;;;21.80;55.00;;;;;;5051569;28;20029;-67
2022/03/12 06:32:23;;;;;;;0.40;0.30;;;21.80;55.10;;;;;;5051494;28;20098;-66
2022/03/12 06:34:49;;;;;;;0.50;0.20;;;21.80;55.00;;;;;;5054855;28;20032;-66
2022/03/12 06:37:14;;;;;;;1.23;0.28;;;21.80;55.00;;;;;;5055156;28;20102;-67
2022/03/12 06:39:40;;;;;;;0.57;0.38;;;21.80;55.00;;;;;;5054940;28;20071;-66
2022/03/12 06:42:06;;;;;;;1.35;0.45;;;21.80;55.10;;;;;;5054673;28;20026;-67
2022/03/12 06:44:32;;;;;;;2.28;0.45;;;21.80;55.10;;;;;;5055311;28;20022;-67
2022/03/12 06:47:01;;;;;;;0.90;0.30;;;21.80;55.10;;;;;;5051910;28;20078;-67
2022/03/12 06:49:27;;;;;;;1.20;0.43;;;21.80;55.10;;;;;;5043054;28;20041;-67
2022/03/12 06:51:53;;;;;;;0.50;0.30;;;21.80;55.10;;;;;;5036469;28;20036;-66
2022/03/12 06:54:19;;;;;;;0.73;0.30;;;21.80;55.10;;;;;;5032680;28;20446;-66
2022/03/12 06:56:45;;;;;;;0.68;0.30;;;21.80;55.10;;;;;;5034129;28;20083;-66
2022/03/12 06:59:12;;;;;;;0.25;0.20;;;21.80;55.10;;;;;;5034235;28;20021;-66
2022/03/12 07:01:37;;;;;;;0.45;0.40;;;21.80;55.10;;;;;;5034020;28;20479;-67
2022/03/12 07:04:03;;;;;;;0.90;0.40;;;21.80;55.20;;;;;;5016249;28;20034;-67
2022/03/12 07:06:29;;;;;;;4.00;0.40;;;21.80;55.10;;;;;;5048212;28;20037;-66
2022/03/12 07:08:54;;;;;;;1.27;0.40;;;21.80;55.20;;;;;;5052667;28;20503;-67
2022/03/12 07:11:20;;;;;;;1.40;0.40;;;21.80;55.20;;;;;;5053458;28;20025;-67
2022/03/12 07:13:46;;;;;;;1.95;0.30;;;21.80;55.20;;;;;;5052529;28;20031;-67
2022/03/12 07:16:12;;;;;;;2.72;0.45;;;21.80;55.20;;;;;;5052433;28;20163;-67
2022/03/12 07:18:41;;;;;;;0.35;0.20;;;21.80;55.20;;;;;;5053452;28;20095;-67
2022/03/12 07:21:06;;;;;;;1.45;0.52;;;21.80;55.20;;;;;;5053248;28;20152;-67
2022/03/12 07:23:32;;;;;;;0.82;0.40;;;21.80;56.20;;;;;;5052885;28;20139;-67
2022/03/12 07:25:58;;;;;;;0.85;0.32;;;21.80;55.20;;;;;;5053752;28;20104;-67
2022/03/12 07:28:23;;;;;;;1.08;0.40;;;21.80;55.20;;;;;;5054221;28;20407;-67
2022/03/12 07:30:49;;;;;;;0.43;0.35;;;21.80;55.20;;;;;;5054232;28;20025;-67
2022/03/12 07:33:15;;;;;;;0.95;0.60;;;21.80;55.30;;;;;;5053931;28;20115;-66
2022/03/12 07:35:40;;;;;;;1.40;1.02;;;21.80;54.90;;;;;;5054187;28;20494;-66
2022/03/12 07:38:06;;;;;;;2.70;1.25;;;21.70;54.50;;;;;;5036165;28;20023;-66
2022/03/12 07:40:33;;;;;;;1.85;1.20;;;21.60;54.40;;;;;;5050565;28;20025;-67
2022/03/12 07:42:59;;;;;;;2.25;1.13;;;21.50;54.30;;;;;;5050086;28;20025;-68
2022/03/12 07:45:24;;;;;;;1.77;1.25;;;21.60;54.50;;;;;;5053328;28;20029;-67
2022/03/12 07:47:52;;;;;;;1.52;1.10;;;21.50;54.50;;;;;;5052849;28;20044;-68
2022/03/12 07:50:18;;;;;;;1.92;1.15;;;21.50;54.50;;;;;;5034169;28;20025;-69
2022/03/12 07:52:43;;;;;;;3.28;1.48;;;21.50;54.50;;;;;;5032936;28;20029;-68
2022/03/12 07:55:11;;;;;;;1.65;1.30;;;21.50;54.40;;;;;;5034110;28;20022;-69
2022/03/12 07:57:36;;;;;;;2.30;1.40;;;21.50;54.50;;;;;;5026813;28;20063;-68
2022/03/12 08:00:06;;;;;;;2.00;1.27;;;21.40;54.40;;;;;;5053963;28;20021;-68
2022/03/12 08:02:31;;;;;;;1.67;1.40;;;21.40;54.40;;;;;;5052772;28;20095;-68
2022/03/12 08:04:57;;;;;;;2.60;1.45;;;21.40;54.40;;;;;;5052835;28;20100;-68
2022/03/12 08:07:24;;;;;;;1.55;1.45;;;21.40;54.30;;;;;;5053908;28;20022;-69
2022/03/12 08:09:55;;;;;;;1.67;1.35;;;21.40;54.30;;;;;;5036725;28;20108;-69
2022/03/12 08:12:24;;;;;;;1.80;1.40;;;21.40;54.20;;;;;;5052570;28;20025;-69
2022/03/12 08:14:50;;;;;;;2.53;1.55;;;21.40;54.20;;;;;;5040960;28;20057;-69
2022/03/12 08:17:18;;;;;;;2.10;1.67;;;21.50;54.30;;;;;;5032603;28;20049;-69
2022/03/12 08:19:44;;;;;;;1.65;1.25;;;21.50;54.30;;;;;;5032670;28;20399;-69
2022/03/12 08:22:10;;;;;;;1.92;1.58;;;21.50;54.20;;;;;;5033229;28;20017;-71
2022/03/12 08:24:36;;;;;;;1.85;1.38;;;21.50;54.10;;;;;;5016198;28;20064;-71
2022/03/12 08:27:02;;;;;;;2.58;1.70;;;21.40;54.10;;;;;;5032312;28;20117;-67
2022/03/12 08:29:28;;;;;;;2.50;1.60;;;21.50;54.10;;;;;;5015965;28;20048;-70
2022/03/12 08:31:54;;;;;;;1.85;1.40;;;21.50;54.60;;;;;;5033780;28;20395;-71
2022/03/12 08:34:19;;;;;;;1.90;1.40;;;21.50;54.10;;;;;;5032120;28;20030;-71
2022/03/12 08:36:45;;;;;;;2.35;1.30;;;21.50;54.10;;;;;;5032094;28;20100;-71
2022/03/12 08:39:12;;;;;;;1.73;1.50;;;21.60;54.10;;;;;;5015867;28;20057;-72
2022/03/12 08:41:39;;;;;;;2.30;1.30;;;21.60;54.00;;;;;;5032386;28;20036;-71
2022/03/12 08:44:06;;;;;;;1.70;1.33;;;21.60;54.10;;;;;;5032258;28;20025;-71
2022/03/12 08:46:32;;;;;;;1.33;1.15;;;21.60;54.00;;;;;;5033751;28;20029;-72
2022/03/12 08:48:57;;;;;;;1.70;1.20;;;21.60;53.80;;;;;;5015651;28;20029;-72
2022/03/12 08:51:23;;;;;;;2.10;1.40;;;21.60;53.90;;;;;;5032936;28;20549;-69
2022/03/12 08:53:49;;;;;;;1.90;1.50;;;21.60;53.80;;;;;;5033245;28;20499;-69
2022/03/12 08:56:14;;;;;;;2.78;1.42;;;21.60;53.80;;;;;;5033101;28;20387;-69
2022/03/12 08:58:41;;;;;;;1.73;1.42;;;21.70;53.80;;;;;;5015512;28;20535;-70
2022/03/12 09:01:08;;;;;;;1.40;1.10;;;21.70;53.80;;;;;;5033091;28;20105;-70
2022/03/12 09:03:35;;;;;;;1.90;1.40;;;21.70;53.70;;;;;;5015644;28;20056;-70
2022/03/12 09:06:02;;;;;;;1.63;1.20;;;21.70;53.60;;;;;;5031956;28;20046;-70
2022/03/12 09:08:27;;;;;;;2.10;1.38;;;21.70;53.60;;;;;;5015418;28;20105;-70
2022/03/12 09:10:55;;;;;;;1.85;1.40;;;21.70;53.60;;;;;;5015590;28;20108;-70
2022/03/12 09:13:21;;;;;;;2.70;1.52;;;21.70;53.60;;;;;;5031482;28;20487;-69
2022/03/12 09:15:46;;;;;;;1.10;1.00;;;21.70;53.50;;;;;;5033146;28;20071;-69
2022/03/12 09:18:13;;;;;;;2.08;1.20;;;21.80;53.60;;;;;;5031752;28;20022;-69
2022/03/12 09:20:43;;;;;;;1.63;1.13;;;21.80;53.50;;;;;;5031608;28;20028;-69
2022/03/12 09:23:09;;;;;;;2.03;1.60;;;21.80;53.50;;;;;;5031490;28;20049;-69
2022/03/12 09:25:35;;;;;;;1.75;1.30;;;21.80;53.50;;;;;;5007834;28;20069;-69
2022/03/12 09:28:00;;;;;;;2.22;1.40;;;21.80;53.40;;;;;;4995856;28;20385;-69
2022/03/12 09:30:26;;;;;;;1.45;1.10;;;21.80;53.40;;;;;;5013127;28;20399;-69
2022/03/12 09:32:53;;;;;;;2.17;1.38;;;21.80;53.30;;;;;;4982940;28;20068;-69
2022/03/12 09:35:19;;;;;;;2.13;1.40;;;21.80;53.30;;;;;;5032411;28;20013;-69
2022/03/12 09:37:45;;;;;;;1.70;0.93;;;21.80;53.20;;;;;;5032714;28;20100;-69
2022/03/12 09:40:11;;;;;;;2.13;0.90;;;21.80;53.20;;;;;;5032486;28;20140;-69
2022/03/12 09:42:37;;;;;;;2.15;1.10;;;21.80;53.10;;;;;;5031595;28;20444;-68
2022/03/12 09:45:03;;;;;;;1.30;1.20;;;21.90;53.20;;;;;;5031645;28;20144;-68
2022/03/12 09:47:29;;;;;;;1.75;1.30;;;21.90;53.20;;;;;;5032855;28;20029;-68
2022/03/12 09:49:54;;;;;;;1.00;0.90;;;21.90;53.10;;;;;;5031152;28;20033;-69
2022/03/12 09:52:20;;;;;;;1.67;0.93;;;21.90;53.10;;;;;;5031365;28;20032;-68
2022/03/12 09:54:47;;;;;;;1.15;0.90;;;21.90;53.10;;;;;;5024372;28;20061;-69
2022/03/12 09:57:13;;;;;;;1.10;1.00;;;21.90;53.20;;;;;;4997214;28;20046;-70
2022/03/12 09:59:39;;;;;;;1.13;1.00;;;21.90;53.10;;;;;;5012172;28;20049;-69
2022/03/12 10:02:04;;;;;;;1.50;1.20;;;21.90;53.00;;;;;;5005237;28;20480;-69
2022/03/12 10:04:30;;;;;;;1.73;1.10;;;21.90;53.20;;;;;;5014754;28;20026;-69
2022/03/12 10:06:56;;;;;;;1.40;1.02;;;21.90;53.00;;;;;;5031512;28;20045;-70
2022/03/12 10:09:22;;;;;;;2.50;1.10;;;21.90;53.00;;;;;;5007448;28;20053;-69
2022/03/12 10:11:51;;;;;;;0.95;0.85;;;21.90;53.00;;;;;;5015191;28;20488;-69
2022/03/12 10:14:17;;;;;;;1.42;1.00;;;21.90;52.90;;;;;;5014075;28;20026;-69
2022/03/12 10:16:43;;;;;;;1.70;0.95;;;21.90;52.90;;;;;;4997746;28;20111;-71
2022/03/12 10:19:09;;;;;;;1.45;1.10;;;21.90;52.90;;;;;;5011196;28;20054;-70
2022/03/12 10:21:37;;;;;;;1.05;0.93;;;21.90;53.00;;;;;;5024307;28;20037;-68
2022/03/12 10:24:07;;;;;;;1.33;1.00;;;21.90;52.90;;;;;;5014725;28;20125;-69
2022/03/12 10:26:33;;;;;;;0.98;0.85;;;22.00;52.90;;;;;;5033110;28;20463;-69
2022/03/12 10:28:58;;;;;;;3.33;1.10;;;22.00;52.90;;;;;;5055511;28;20033;-69
2022/03/12 10:31:24;;;;;;;1.02;0.93;;;22.00;52.90;;;;;;5055035;28;20033;-71
2022/03/12 10:33:50;;;;;;;0.90;0.90;;;22.00;52.90;;;;;;5054856;28;20029;-72
2022/03/12 10:36:17;;;;;;;1.15;0.85;;;22.00;52.80;;;;;;5017049;28;20033;-72
2022/03/12 10:38:43;;;;;;;1.00;0.77;;;22.00;52.70;;;;;;5017113;28;20029;-72
2022/03/12 10:41:10;;;;;;;1.30;0.98;;;22.00;52.80;;;;;;5024032;28;20444;-70
2022/03/12 10:43:49;;;;;;;2.05;1.00;;;22.00;52.70;;;;;;5029971;28;20024;-71
2022/03/12 10:46:23;;;;;;;3.03;1.00;;;22.10;52.60;;;;;;5054799;28;20075;-68
2022/03/12 10:48:54;;;;;;;1.20;0.85;;;22.00;52.60;;;;;;5053830;28;20024;-68
2022/03/12 10:51:19;;;;;;;0.90;0.77;;;22.00;52.70;;;;;;5037551;28;20033;-68
2022/03/12 10:53:45;;;;;;;1.38;0.82;;;22.00;52.60;;;;;;5054392;28;20079;-68
2022/03/12 10:56:11;;;;;;;1.40;1.00;;;22.00;52.70;;;;;;5037067;28;20478;-68
2022/03/12 10:58:37;;;;;;;1.67;1.10;;;22.00;52.60;;;;;;5037066;28;20036;-68
2022/03/12 11:01:02;;;;;;;2.22;1.15;;;22.00;52.60;;;;;;5054525;28;20039;-69
2022/03/12 11:03:30;;;;;;;1.20;0.70;;;22.00;52.60;;;;;;5052969;28;20052;-69
2022/03/12 11:05:56;;;;;;;1.15;0.98;;;22.00;52.60;;;;;;5054088;28;20021;-69
2022/03/12 11:08:26;;;;;;;1.35;0.90;;;22.00;52.50;;;;;;5052828;28;20020;-69
2022/03/12 11:11:06;;;;;;;1.83;0.90;;;22.10;52.60;;;;;;5054397;28;20095;-69
2022/03/12 11:13:44;;;;;;;2.55;0.90;;;22.10;52.60;;;;;;5052958;28;20078;-69
2022/03/12 11:16:14;;;;;;;0.65;0.57;;;22.10;52.60;;;;;;5053036;28;20113;-69
2022/03/12 11:18:52;;;;;;;1.10;0.75;;;22.10;52.50;;;;;;5054138;28;20029;-69
2022/03/12 11:21:28;;;;;;;1.50;0.80;;;22.10;52.30;;;;;;5054095;28;20029;-69
2022/03/12 11:23:54;;;;;;;1.33;0.80;;;22.10;52.40;;;;;;5036487;28;20482;-67
2022/03/12 11:26:20;;;;;;;1.05;0.80;;;22.10;52.50;;;;;;5040500;28;20048;-67
2022/03/12 11:28:56;;;;;;;1.02;0.93;;;22.10;52.50;;;;;;5016852;28;20030;-67
2022/03/12 11:31:37;;;;;;;1.05;0.60;;;22.10;52.40;;;;;;5034105;28;20026;-67
2022/03/12 11:34:22;;;;;;;1.10;0.77;;;22.10;52.20;;;;;;5032429;28;20492;-67
2022/03/12 11:37:12;;;;;;;1.33;0.90;;;22.10;52.20;;;;;;5033731;28;20026;-67
2022/03/12 11:39:45;;;;;;;1.20;0.80;;;22.10;52.10;;;;;;5017113;28;20030;-67
2022/03/12 11:42:15;;;;;;;1.67;0.95;;;22.10;52.40;;;;;;5016355;28;20029;-67
2022/03/12 11:44:46;;;;;;;0.82;0.70;;;22.10;52.40;;;;;;5033406;28;20029;-68
2022/03/12 11:47:13;;;;;;;1.08;0.70;;;22.10;52.40;;;;;;5033775;28;20022;-69
2022/03/12 11:49:39;;;;;;;0.70;0.70;;;22.10;52.30;;;;;;4999464;28;20013;-69
2022/03/12 11:52:05;;;;;;;0.80;0.80;;;22.10;52.40;;;;;;4999770;28;20060;-69
2022/03/12 11:54:31;;;;;;;1.30;0.70;;;22.10;52.30;;;;;;5033291;28;20521;-69
2022/03/12 11:56:59;;;;;;;1.38;0.60;;;22.10;52.20;;;;;;5016487;28;20044;-69
2022/03/12 11:59:26;;;;;;;0.60;0.57;;;22.10;52.20;;;;;;4999407;28;20483;-69
2022/03/12 12:02:01;;;;;;;1.63;0.70;;;22.20;52.30;;;;;;5016230;28;20018;-67
2022/03/12 12:04:34;;;;;;;1.15;0.57;;;22.10;52.10;;;;;;5016750;28;20030;-67
2022/03/12 12:07:00;;;;;;;1.33;0.63;;;22.10;52.20;;;;;;5033519;28;20025;-68
2022/03/12 12:09:28;;;;;;;1.05;0.57;;;22.10;52.20;;;;;;5044867;28;20032;-67
2022/03/12 12:11:54;;;;;;;2.00;0.70;;;22.10;52.20;;;;;;5052125;28;20529;-67
2022/03/12 12:14:20;;;;;;;1.65;0.75;;;22.20;52.20;;;;;;5051855;28;20017;-71
2022/03/12 12:16:48;;;;;;;0.82;0.70;;;22.20;52.20;;;;;;5051995;28;21262;-69
2022/03/12 12:19:14;;;;;;;0.90;0.75;;;22.20;52.20;;;;;;5052052;28;20032;-68
2022/03/12 12:21:40;;;;;;;1.50;0.70;;;22.20;52.20;;;;;;5051733;28;20029;-69
2022/03/12 12:24:31;;;;;;;1.20;0.80;;;22.20;52.20;;;;;;5052439;28;20049;-68
2022/03/12 12:27:02;;;;;;;1.27;0.88;;;22.20;51.80;;;;;;5034522;28;20033;-69
2022/03/12 12:29:49;;;;;;;1.33;0.80;;;22.20;52.20;;;;;;5015017;28;20029;-68
2022/03/12 12:32:17;;;;;;;0.82;0.60;;;22.20;51.90;;;;;;5032318;28;20032;-70
2022/03/12 12:35:13;;;;;;;0.88;0.68;;;22.10;52.10;;;;;;5015357;28;20056;-70
2022/03/12 12:37:56;;;;;;;0.93;0.70;;;22.20;51.90;;;;;;5031893;28;20852;-70
2022/03/12 12:40:31;;;;;;;1.67;0.63;;;22.20;52.00;;;;;;5032253;28;20028;-70
2022/03/12 12:42:59;;;;;;;0.65;0.60;;;22.20;52.10;;;;;;5031334;28;20075;-70
2022/03/12 12:45:29;;;;;;;1.08;0.50;;;22.20;52.10;;;;;;5015884;28;20025;-70
2022/03/12 12:48:09;;;;;;;0.98;0.70;;;22.20;52.10;;;;;;5016222;28;20025;-69
2022/03/12 12:50:35;;;;;;;0.50;0.50;;;22.20;51.90;;;;;;5032070;28;20112;-69